sensor_id;sensor_type;location;lat;lon;timestamp;pressure;altitude;pressure_sealevel;temperature;humidity
73101;BME280;61288;53.446;-2.266;2023-08-01T00:00:09;101620.94;;;13.02;100.00
73101;BME280;61288;53.446;-2.266;2023-08-01T00:02:35;101602.78;;;13.00;100.00
73101;BME280;61288;53.446;-2.266;2023-08-01T00:05:01;101596.75;;;13.00;100.00
73101;BME280;61288;53.446;-2.266;2023-08-01T00:07:27;101589.97;;;12.96;100.00
73101;BME280;61288;53.446;-2.266;2023-08-01T00:09:53;101573.50;;;12.95;100.00
73101;BME280;61288;53.446;-2.266;2023-08-01T00:12:18;101572.66;;;12.95;100.00
73101;BME280;61288;53.446;-2.266;2023-08-01T00:14:44;101562.28;;;12.93;100.00
73101;BME280;61288;53.446;-2.266;2023-08-01T00:17:09;101565.75;;;12.94;100.00
73101;BME280;61288;53.446;-2.266;2023-08-01T00:19:35;101559.69;;;12.93;100.00
73101;BME280;61288;53.446;-2.266;2023-08-01T00:22:01;101554.44;;;12.95;100.00
73101;BME280;61288;53.446;-2.266;2023-08-01T00:24:26;101561.38;;;12.94;100.00
73101;BME280;61288;53.446;-2.266;2023-08-01T00:26:52;101574.47;;;12.93;100.00
73101;BME280;61288;53.446;-2.266;2023-08-01T00:29:21;101578.81;;;12.92;100.00
73101;BME280;61288;53.446;-2.266;2023-08-01T00:31:47;101574.47;;;12.93;100.00
73101;BME280;61288;53.446;-2.266;2023-08-01T00:34:12;101579.66;;;12.93;100.00
73101;BME280;61288;53.446;-2.266;2023-08-01T00:36:38;101580.50;;;12.93;100.00
73101;BME280;61288;53.446;-2.266;2023-08-01T00:39:03;101585.66;;;12.95;100.00
73101;BME280;61288;53.446;-2.266;2023-08-01T00:41:29;101587.34;;;12.96;100.00
73101;BME280;61288;53.446;-2.266;2023-08-01T00:43:54;101589.97;;;12.96;100.00
73101;BME280;61288;53.446;-2.266;2023-08-01T00:46:20;101594.19;;;12.98;100.00
73101;BME280;61288;53.446;-2.266;2023-08-01T00:48:46;101598.44;;;13.01;100.00
73101;BME280;61288;53.446;-2.266;2023-08-01T00:51:12;101598.38;;;13.03;100.00
73101;BME280;61288;53.446;-2.266;2023-08-01T00:53:38;101613.94;;;13.04;100.00
73101;BME280;61288;53.446;-2.266;2023-08-01T00:56:04;101631.25;;;13.05;100.00
73101;BME280;61288;53.446;-2.266;2023-08-01T00:58:30;101643.28;;;13.08;100.00
73101;BME280;61288;53.446;-2.266;2023-08-01T01:00:55;101645.84;;;13.09;100.00
73101;BME280;61288;53.446;-2.266;2023-08-01T01:03:22;101657.91;;;13.12;100.00
73101;BME280;61288;53.446;-2.266;2023-08-01T01:06:08;101657.00;;;13.13;100.00
73101;BME280;61288;53.446;-2.266;2023-08-01T01:08:35;101663.81;;;13.15;100.00
73101;BME280;61288;53.446;-2.266;2023-08-01T01:11:01;101666.44;;;13.15;100.00
73101;BME280;61288;53.446;-2.266;2023-08-01T01:13:26;101673.28;;;13.18;100.00
73101;BME280;61288;53.446;-2.266;2023-08-01T01:15:52;101672.38;;;13.19;100.00
73101;BME280;61288;53.446;-2.266;2023-08-01T01:18:17;101661.09;;;13.19;100.00
73101;BME280;61288;53.446;-2.266;2023-08-01T01:20:43;101670.69;;;13.18;100.00
73101;BME280;61288;53.446;-2.266;2023-08-01T01:23:09;101672.38;;;13.19;100.00
73101;BME280;61288;53.446;-2.266;2023-08-01T01:25:35;101673.22;;;13.20;100.00
73101;BME280;61288;53.446;-2.266;2023-08-01T01:28:03;101668.88;;;13.20;100.00
73101;BME280;61288;53.446;-2.266;2023-08-01T01:30:29;101661.09;;;13.19;100.00
73101;BME280;61288;53.446;-2.266;2023-08-01T01:32:59;101655.91;;;13.19;100.00
73101;BME280;61288;53.446;-2.266;2023-08-01T01:35:25;101655.97;;;13.17;100.00
73101;BME280;61288;53.446;-2.266;2023-08-01T01:37:51;101655.19;;;13.15;100.00
73101;BME280;61288;53.446;-2.266;2023-08-01T01:40:17;101656.09;;;13.14;100.00
73101;BME280;61288;53.446;-2.266;2023-08-01T01:42:42;101658.72;;;13.12;100.00
73101;BME280;61288;53.446;-2.266;2023-08-01T01:45:08;101660.53;;;13.10;100.00
73101;BME280;61288;53.446;-2.266;2023-08-01T01:47:34;101650.19;;;13.09;100.00
73101;BME280;61288;53.446;-2.266;2023-08-01T01:50:00;101643.34;;;13.06;100.00
73101;BME280;61288;53.446;-2.266;2023-08-01T01:52:27;101636.34;;;13.08;100.00
73101;BME280;61288;53.446;-2.266;2023-08-01T01:54:52;101628.53;;;13.08;100.00
73101;BME280;61288;53.446;-2.266;2023-08-01T01:57:18;101627.75;;;13.06;100.00
73101;BME280;61288;53.446;-2.266;2023-08-01T01:59:44;101628.56;;;13.07;100.00
73101;BME280;61288;53.446;-2.266;2023-08-01T02:02:10;101626.03;;;13.05;100.00
73101;BME280;61288;53.446;-2.266;2023-08-01T02:04:35;101599.22;;;13.03;100.00
73101;BME280;61288;53.446;-2.266;2023-08-01T02:07:02;101602.66;;;13.04;100.00
73101;BME280;61288;53.446;-2.266;2023-08-01T02:09:28;101594.94;;;13.02;100.00
73101;BME280;61288;53.446;-2.266;2023-08-01T02:11:54;101601.09;;;12.99;100.00
73101;BME280;61288;53.446;-2.266;2023-08-01T02:14:19;101595.06;;;12.99;100.00
73101;BME280;61288;53.446;-2.266;2023-08-01T02:16:45;101591.66;;;12.97;100.00
73101;BME280;61288;53.446;-2.266;2023-08-01T02:19:11;101585.66;;;12.95;100.00
73101;BME280;61288;53.446;-2.266;2023-08-01T02:21:36;101578.66;;;12.97;100.00
73101;BME280;61288;53.446;-2.266;2023-08-01T02:24:02;101569.06;;;12.97;100.00
73101;BME280;61288;53.446;-2.266;2023-08-01T02:26:28;101560.47;;;12.95;100.00
73101;BME280;61288;53.446;-2.266;2023-08-01T02:28:55;101563.09;;;12.95;100.00
73101;BME280;61288;53.446;-2.266;2023-08-01T02:31:20;101552.75;;;12.94;100.00
73101;BME280;61288;53.446;-2.266;2023-08-01T02:33:46;101544.09;;;12.93;100.00
73101;BME280;61288;53.446;-2.266;2023-08-01T02:36:11;101532.00;;;12.92;100.00
73101;BME280;61288;53.446;-2.266;2023-08-01T02:38:37;101528.53;;;12.92;100.00
73101;BME280;61288;53.446;-2.266;2023-08-01T02:41:02;101522.50;;;12.91;100.00
73101;BME280;61288;53.446;-2.266;2023-08-01T02:43:28;101522.53;;;12.90;100.00
73101;BME280;61288;53.446;-2.266;2023-08-01T02:45:53;101514.84;;;12.86;100.00
73101;BME280;61288;53.446;-2.266;2023-08-01T02:48:19;101520.91;;;12.87;100.00
73101;BME280;61288;53.446;-2.266;2023-08-01T02:50:46;101520.00;;;12.88;100.00
73101;BME280;61288;53.446;-2.266;2023-08-01T02:53:11;101513.03;;;12.89;100.00
73101;BME280;61288;53.446;-2.266;2023-08-01T02:55:37;101502.69;;;12.87;100.00
73101;BME280;61288;53.446;-2.266;2023-08-01T02:58:04;101487.88;;;12.89;100.00
73101;BME280;61288;53.446;-2.266;2023-08-01T03:00:29;101487.09;;;12.87;100.00
73101;BME280;61288;53.446;-2.266;2023-08-01T03:02:56;101481.91;;;12.87;100.00
73101;BME280;61288;53.446;-2.266;2023-08-01T03:05:22;101472.31;;;12.88;100.00
73101;BME280;61288;53.446;-2.266;2023-08-01T03:07:47;101468.81;;;12.89;100.00
73101;BME280;61288;53.446;-2.266;2023-08-01T03:10:14;101448.88;;;12.89;100.00
73101;BME280;61288;53.446;-2.266;2023-08-01T03:12:39;101447.19;;;12.88;100.00
73101;BME280;61288;53.446;-2.266;2023-08-01T03:15:05;101439.28;;;12.90;100.00
73101;BME280;61288;53.446;-2.266;2023-08-01T03:17:33;101441.00;;;12.91;100.00
73101;BME280;61288;53.446;-2.266;2023-08-01T03:20:00;101429.75;;;12.90;100.00
73101;BME280;61288;53.446;-2.266;2023-08-01T03:22:25;101416.69;;;12.92;100.00
73101;BME280;61288;53.446;-2.266;2023-08-01T03:24:51;101415.84;;;12.91;100.00
73101;BME280;61288;53.446;-2.266;2023-08-01T03:27:16;101421.88;;;12.92;100.00
73101;BME280;61288;53.446;-2.266;2023-08-01T03:29:42;101415.84;;;12.91;100.00
73101;BME280;61288;53.446;-2.266;2023-08-01T03:32:07;101408.88;;;12.92;100.00
73101;BME280;61288;53.446;-2.266;2023-08-01T03:34:33;101406.22;;;12.93;100.00
73101;BME280;61288;53.446;-2.266;2023-08-01T03:36:58;101414.81;;;12.95;100.00
73101;BME280;61288;53.446;-2.266;2023-08-01T03:39:24;101417.41;;;12.95;100.00
73101;BME280;61288;53.446;-2.266;2023-08-01T03:41:49;101421.78;;;12.95;100.00
73101;BME280;61288;53.446;-2.266;2023-08-01T03:44:15;101430.50;;;12.94;100.00
73101;BME280;61288;53.446;-2.266;2023-08-01T03:46:43;101434.88;;;12.92;100.00
73101;BME280;61288;53.446;-2.266;2023-08-01T03:49:08;101445.38;;;12.90;100.00
73101;BME280;61288;53.446;-2.266;2023-08-01T03:51:34;101446.28;;;12.89;100.00
73101;BME280;61288;53.446;-2.266;2023-08-01T03:54:00;101456.59;;;12.91;100.00
73101;BME280;61288;53.446;-2.266;2023-08-01T03:56:25;101459.28;;;12.89;100.00
73101;BME280;61288;53.446;-2.266;2023-08-01T03:58:52;101468.81;;;12.89;100.00
73101;BME280;61288;53.446;-2.266;2023-08-01T04:01:17;101480.00;;;12.91;100.00
73101;BME280;61288;53.446;-2.266;2023-08-01T04:03:43;101480.09;;;12.89;100.00
73101;BME280;61288;53.446;-2.266;2023-08-01T04:06:08;101492.22;;;12.89;100.00
73101;BME280;61288;53.446;-2.266;2023-08-01T04:08:34;101487.09;;;12.87;100.00
73101;BME280;61288;53.446;-2.266;2023-08-01T04:10:59;101501.00;;;12.86;100.00
73101;BME280;61288;53.446;-2.266;2023-08-01T04:13:25;101494.13;;;12.85;100.00
73101;BME280;61288;53.446;-2.266;2023-08-01T04:15:51;101501.06;;;12.84;100.00
73101;BME280;61288;53.446;-2.266;2023-08-01T04:18:16;101501.13;;;12.83;100.00
73101;BME280;61288;53.446;-2.266;2023-08-01T04:20:41;101509.84;;;12.82;100.00
73101;BME280;61288;53.446;-2.266;2023-08-01T04:23:07;101518.53;;;12.81;100.00
73101;BME280;61288;53.446;-2.266;2023-08-01T04:25:32;101526.38;;;12.79;100.00
73101;BME280;61288;53.446;-2.266;2023-08-01T04:27:58;101530.78;;;12.77;100.00
73101;BME280;61288;53.446;-2.266;2023-08-01T04:30:23;101527.44;;;12.74;100.00
73101;BME280;61288;53.446;-2.266;2023-08-01T04:32:49;101533.56;;;12.73;100.00
73101;BME280;61288;53.446;-2.266;2023-08-01T04:35:14;101532.72;;;12.72;100.00
73101;BME280;61288;53.446;-2.266;2023-08-01T04:37:40;101546.56;;;12.73;100.00
73101;BME280;61288;53.446;-2.266;2023-08-01T04:40:06;101553.63;;;12.69;100.00
73101;BME280;61288;53.446;-2.266;2023-08-01T04:42:33;101560.56;;;12.68;100.00
73101;BME280;61288;53.446;-2.266;2023-08-01T04:44:58;101565.78;;;12.68;100.00
73101;BME280;61288;53.446;-2.266;2023-08-01T04:47:25;101583.06;;;12.69;100.00
73101;BME280;61288;53.446;-2.266;2023-08-01T04:49:50;101586.56;;;12.68;100.00
73101;BME280;61288;53.446;-2.266;2023-08-01T04:52:16;101593.53;;;12.68;100.00
73101;BME280;61288;53.446;-2.266;2023-08-01T04:54:42;101597.88;;;12.67;100.00
73101;BME280;61288;53.446;-2.266;2023-08-01T04:57:08;101613.47;;;12.67;100.00
73101;BME280;61288;53.446;-2.266;2023-08-01T04:59:33;101622.97;;;12.68;100.00
73101;BME280;61288;53.446;-2.266;2023-08-01T05:01:59;101631.69;;;12.67;100.00
73101;BME280;61288;53.446;-2.266;2023-08-01T05:04:24;101633.44;;;12.67;100.00
73101;BME280;61288;53.446;-2.266;2023-08-01T05:06:50;101642.16;;;12.66;100.00
73101;BME280;61288;53.446;-2.266;2023-08-01T05:09:15;101646.56;;;12.64;100.00
73101;BME280;61288;53.446;-2.266;2023-08-01T05:11:41;101650.91;;;12.63;100.00
73101;BME280;61288;53.446;-2.266;2023-08-01T05:14:06;101660.38;;;12.64;100.00
73101;BME280;61288;53.446;-2.266;2023-08-01T05:16:32;101652.66;;;12.63;100.00
73101;BME280;61288;53.446;-2.266;2023-08-01T05:18:57;101656.97;;;12.64;100.00
73101;BME280;61288;53.446;-2.266;2023-08-01T05:21:23;101669.88;;;12.65;100.00
73101;BME280;61288;53.446;-2.266;2023-08-01T05:23:48;101674.25;;;12.65;100.00
73101;BME280;61288;53.446;-2.266;2023-08-01T05:26:14;101681.16;;;12.66;100.00
73101;BME280;61288;53.446;-2.266;2023-08-01T05:28:39;101689.78;;;12.66;100.00
73101;BME280;61288;53.446;-2.266;2023-08-01T05:31:04;101690.59;;;12.68;100.00
73101;BME280;61288;53.446;-2.266;2023-08-01T05:33:30;101689.75;;;12.68;100.00
73101;BME280;61288;53.446;-2.266;2023-08-01T05:35:56;101703.59;;;12.68;100.00
73101;BME280;61288;53.446;-2.266;2023-08-01T05:38:22;101705.25;;;12.71;100.00
73101;BME280;61288;53.446;-2.266;2023-08-01T05:40:47;101708.66;;;12.73;100.00
73101;BME280;61288;53.446;-2.266;2023-08-01T05:43:13;101707.69;;;12.76;100.00
73101;BME280;61288;53.446;-2.266;2023-08-01T05:45:38;101710.25;;;12.77;100.00
73101;BME280;61288;53.446;-2.266;2023-08-01T05:48:04;101722.41;;;12.77;100.00
73101;BME280;61288;53.446;-2.266;2023-08-01T05:50:29;101718.91;;;12.78;100.00
73101;BME280;61288;53.446;-2.266;2023-08-01T05:52:55;101720.59;;;12.79;100.00
73101;BME280;61288;53.446;-2.266;2023-08-01T05:55:20;101726.63;;;12.79;100.00
73101;BME280;61288;53.446;-2.266;2023-08-01T05:57:46;101715.41;;;12.79;100.00
73101;BME280;61288;53.446;-2.266;2023-08-01T06:00:14;101717.94;;;12.80;100.00
73101;BME280;61288;53.446;-2.266;2023-08-01T06:02:40;101714.44;;;12.81;100.00
73101;BME280;61288;53.446;-2.266;2023-08-01T06:05:05;101717.00;;;12.83;100.00
73101;BME280;61288;53.446;-2.266;2023-08-01T06:07:31;101716.09;;;12.84;100.00
73101;BME280;61288;53.446;-2.266;2023-08-01T06:09:56;101717.81;;;12.83;100.00
73101;BME280;61288;53.446;-2.266;2023-08-01T06:12:22;101713.41;;;12.85;100.00
73101;BME280;61288;53.446;-2.266;2023-08-01T06:14:47;101712.53;;;12.86;100.00
73101;BME280;61288;53.446;-2.266;2023-08-01T06:17:13;101712.47;;;12.88;100.00
73101;BME280;61288;53.446;-2.266;2023-08-01T06:19:39;101713.28;;;12.90;100.00
73101;BME280;61288;53.446;-2.266;2023-08-01T06:22:05;101695.91;;;12.91;100.00
73101;BME280;61288;53.446;-2.266;2023-08-01T06:24:31;101697.59;;;12.92;100.00
73101;BME280;61288;53.446;-2.266;2023-08-01T06:26:56;101695.88;;;12.92;100.00
73101;BME280;61288;53.446;-2.266;2023-08-01T06:29:22;101690.56;;;12.95;100.00
73101;BME280;61288;53.446;-2.266;2023-08-01T06:31:48;101686.09;;;12.99;100.00
73101;BME280;61288;53.446;-2.266;2023-08-01T06:34:13;101673.03;;;13.00;100.00
73101;BME280;61288;53.446;-2.266;2023-08-01T06:36:39;101666.88;;;13.03;100.00
73101;BME280;61288;53.446;-2.266;2023-08-01T06:39:04;101657.31;;;13.04;100.00
73101;BME280;61288;53.446;-2.266;2023-08-01T06:41:30;101650.38;;;13.04;100.00
73101;BME280;61288;53.446;-2.266;2023-08-01T06:43:55;101645.16;;;13.04;100.00
73101;BME280;61288;53.446;-2.266;2023-08-01T06:46:21;101640.75;;;13.06;100.00
73101;BME280;61288;53.446;-2.266;2023-08-01T06:48:46;101631.09;;;13.10;100.00
73101;BME280;61288;53.446;-2.266;2023-08-01T06:51:12;101621.50;;;13.10;100.00
73101;BME280;61288;53.446;-2.266;2023-08-01T06:53:37;101621.47;;;13.12;100.00
73101;BME280;61288;53.446;-2.266;2023-08-01T06:56:03;101617.84;;;13.16;100.00
73101;BME280;61288;53.446;-2.266;2023-08-01T06:58:29;101615.94;;;13.21;100.00
73101;BME280;61288;53.446;-2.266;2023-08-01T07:00:54;101608.91;;;13.23;100.00
73101;BME280;61288;53.446;-2.266;2023-08-01T07:03:20;101609.53;;;13.30;100.00
73101;BME280;61288;53.446;-2.266;2023-08-01T07:05:46;101597.22;;;13.34;100.00
73101;BME280;61288;53.446;-2.266;2023-08-01T07:08:11;101591.06;;;13.36;100.00
73101;BME280;61288;53.446;-2.266;2023-08-01T07:10:37;101587.44;;;13.40;100.00
73101;BME280;61288;53.446;-2.266;2023-08-01T07:13:03;101576.13;;;13.41;100.00
73101;BME280;61288;53.446;-2.266;2023-08-01T07:15:33;101565.69;;;13.43;100.00
73101;BME280;61288;53.446;-2.266;2023-08-01T07:17:59;101545.78;;;13.40;100.00
73101;BME280;61288;53.446;-2.266;2023-08-01T07:20:25;101542.28;;;13.43;100.00
73101;BME280;61288;53.446;-2.266;2023-08-01T07:22:51;101535.25;;;13.45;100.00
73101;BME280;61288;53.446;-2.266;2023-08-01T07:25:16;101532.44;;;13.50;100.00
73101;BME280;61288;53.446;-2.266;2023-08-01T07:27:42;101520.88;;;13.57;100.00
73101;BME280;61288;53.446;-2.266;2023-08-01T07:30:08;101505.69;;;13.68;100.00
73101;BME280;61288;53.446;-2.266;2023-08-01T07:32:35;101493.13;;;13.78;100.00
73101;BME280;61288;53.446;-2.266;2023-08-01T07:35:05;101479.09;;;13.81;100.00
73101;BME280;61288;53.446;-2.266;2023-08-01T07:37:32;101456.44;;;13.83;100.00
73101;BME280;61288;53.446;-2.266;2023-08-01T07:39:58;101431.25;;;13.83;100.00
73101;BME280;61288;53.446;-2.266;2023-08-01T07:42:24;101406.00;;;13.85;100.00
73101;BME280;61288;53.446;-2.266;2023-08-01T07:44:49;101378.13;;;13.88;100.00
73101;BME280;61288;53.446;-2.266;2023-08-01T07:47:16;101352.06;;;13.88;100.00
73101;BME280;61288;53.446;-2.266;2023-08-01T07:49:41;101339.97;;;13.86;100.00
73101;BME280;61288;53.446;-2.266;2023-08-01T07:52:07;101313.31;;;13.80;100.00
73101;BME280;61288;53.446;-2.266;2023-08-01T07:54:32;101295.41;;;13.72;100.00
73101;BME280;61288;53.446;-2.266;2023-08-01T07:56:58;101268.75;;;13.67;100.00
73101;BME280;61288;53.446;-2.266;2023-08-01T07:59:23;101243.69;;;13.64;100.00
73101;BME280;61288;53.446;-2.266;2023-08-01T08:01:50;101218.50;;;13.65;100.00
73101;BME280;61288;53.446;-2.266;2023-08-01T08:04:16;101206.97;;;13.70;100.00
73101;BME280;61288;53.446;-2.266;2023-08-01T08:06:42;101195.44;;;13.76;100.00
73101;BME280;61288;53.446;-2.266;2023-08-01T08:09:07;101183.03;;;13.81;100.00
73101;BME280;61288;53.446;-2.266;2023-08-01T08:11:33;101168.66;;;13.92;100.00
73101;BME280;61288;53.446;-2.266;2023-08-01T08:13:59;101154.41;;;13.99;100.00
73101;BME280;61288;53.446;-2.266;2023-08-01T08:16:25;101147.97;;;14.06;100.00
73101;BME280;61288;53.446;-2.266;2023-08-01T08:18:50;101129.75;;;14.06;100.00
73101;BME280;61288;53.446;-2.266;2023-08-01T08:21:16;101123.63;;;14.07;100.00
73101;BME280;61288;53.446;-2.266;2023-08-01T08:23:41;101111.44;;;14.08;100.00
73101;BME280;61288;53.446;-2.266;2023-08-01T08:26:07;101096.72;;;14.07;100.00
73101;BME280;61288;53.446;-2.266;2023-08-01T08:28:33;101077.94;;;14.00;100.00
73101;BME280;61288;53.446;-2.266;2023-08-01T08:30:59;101063.31;;;13.97;100.00
73101;BME280;61288;53.446;-2.266;2023-08-01T08:33:25;101046.06;;;13.95;100.00
73101;BME280;61288;53.446;-2.266;2023-08-01T08:35:51;101025.31;;;13.93;100.00
73101;BME280;61288;53.446;-2.266;2023-08-01T08:38:17;101010.50;;;13.94;100.00
73101;BME280;61288;53.446;-2.266;2023-08-01T08:40:55;100996.41;;;13.98;100.00
73101;BME280;61288;53.446;-2.266;2023-08-01T08:43:26;100995.34;;;14.02;100.00
73101;BME280;61288;53.446;-2.266;2023-08-01T08:45:56;100986.53;;;14.05;100.00
73101;BME280;61288;53.446;-2.266;2023-08-01T08:48:25;100960.09;;;14.12;100.00
73101;BME280;61288;53.446;-2.266;2023-08-01T08:50:51;100949.34;;;14.19;100.00
73101;BME280;61288;53.446;-2.266;2023-08-01T08:53:18;100942.34;;;14.19;100.00
73101;BME280;61288;53.446;-2.266;2023-08-01T08:55:43;100926.56;;;14.22;100.00
73101;BME280;61288;53.446;-2.266;2023-08-01T08:58:10;100914.81;;;14.31;100.00
73101;BME280;61288;53.446;-2.266;2023-08-01T09:00:36;100907.84;;;14.32;100.00
73101;BME280;61288;53.446;-2.266;2023-08-01T09:03:04;100881.84;;;14.30;100.00
73101;BME280;61288;53.446;-2.266;2023-08-01T09:05:35;100875.88;;;14.28;100.00
73101;BME280;61288;53.446;-2.266;2023-08-01T09:08:07;100868.06;;;14.28;100.00
73101;BME280;61288;53.446;-2.266;2023-08-01T09:10:37;100857.41;;;14.33;100.00
73101;BME280;61288;53.446;-2.266;2023-08-01T09:13:02;100838.22;;;14.34;100.00
73101;BME280;61288;53.446;-2.266;2023-08-01T09:15:28;100826.72;;;14.38;100.00
73101;BME280;61288;53.446;-2.266;2023-08-01T09:17:55;100823.25;;;14.37;100.00
73101;BME280;61288;53.446;-2.266;2023-08-01T09:20:28;100808.34;;;14.39;100.00
73101;BME280;61288;53.446;-2.266;2023-08-01T09:22:55;100804.69;;;14.43;100.00
73101;BME280;61288;53.446;-2.266;2023-08-01T09:25:31;100778.44;;;14.47;100.00
73101;BME280;61288;53.446;-2.266;2023-08-01T09:27:56;100769.59;;;14.49;100.00
73101;BME280;61288;53.446;-2.266;2023-08-01T09:30:22;100761.94;;;14.46;100.00
73101;BME280;61288;53.446;-2.266;2023-08-01T09:33:00;100757.59;;;14.47;100.00
73101;BME280;61288;53.446;-2.266;2023-08-01T09:35:25;100760.84;;;14.50;100.00
73101;BME280;61288;53.446;-2.266;2023-08-01T09:37:51;100770.78;;;14.59;100.00
73101;BME280;61288;53.446;-2.266;2023-08-01T09:40:16;100763.59;;;14.63;100.00
73101;BME280;61288;53.446;-2.266;2023-08-01T09:42:43;100753.00;;;14.66;100.00
73101;BME280;61288;53.446;-2.266;2023-08-01T09:45:17;100757.88;;;14.72;100.00
73101;BME280;61288;53.446;-2.266;2023-08-01T09:47:44;100763.78;;;14.76;100.00
73101;BME280;61288;53.446;-2.266;2023-08-01T09:50:11;100762.94;;;14.76;100.00
73101;BME280;61288;53.446;-2.266;2023-08-01T09:52:38;100745.59;;;14.75;100.00
73101;BME280;61288;53.446;-2.266;2023-08-01T09:55:04;100727.66;;;14.68;100.00
73101;BME280;61288;53.446;-2.266;2023-08-01T09:57:31;100722.06;;;14.60;100.00
73101;BME280;61288;53.446;-2.266;2023-08-01T09:59:57;100722.66;;;14.49;100.00
73101;BME280;61288;53.446;-2.266;2023-08-01T10:02:25;100726.31;;;14.47;100.00
73101;BME280;61288;53.446;-2.266;2023-08-01T10:04:57;100742.75;;;14.47;100.00
73101;BME280;61288;53.446;-2.266;2023-08-01T10:07:24;100757.41;;;14.50;100.00
73101;BME280;61288;53.446;-2.266;2023-08-01T10:09:58;100764.19;;;14.52;100.00
73101;BME280;61288;53.446;-2.266;2023-08-01T10:12:26;100765.81;;;14.55;100.00
73101;BME280;61288;53.446;-2.266;2023-08-01T10:14:52;100776.81;;;14.60;100.00
73101;BME280;61288;53.446;-2.266;2023-08-01T10:17:18;100764.78;;;14.57;100.00
73101;BME280;61288;53.446;-2.266;2023-08-01T10:19:44;100755.28;;;14.56;100.00
73101;BME280;61288;53.446;-2.266;2023-08-01T10:22:13;100729.66;;;14.49;100.00
73101;BME280;61288;53.446;-2.266;2023-08-01T10:24:39;100729.09;;;14.43;100.00
73101;BME280;61288;53.446;-2.266;2023-08-01T10:27:18;100733.50;;;14.41;100.00
73101;BME280;61288;53.446;-2.266;2023-08-01T10:29:44;100746.22;;;14.48;100.00
73101;BME280;61288;53.446;-2.266;2023-08-01T10:32:11;100761.59;;;14.52;100.00
73101;BME280;61288;53.446;-2.266;2023-08-01T10:34:37;100777.34;;;14.51;100.00
73101;BME280;61288;53.446;-2.266;2023-08-01T10:37:03;100766.41;;;14.44;100.00
73101;BME280;61288;53.446;-2.266;2023-08-01T10:39:28;100782.75;;;14.32;100.00
73101;BME280;61288;53.446;-2.266;2023-08-01T10:42:02;100790.03;;;14.25;100.00
73101;BME280;61288;53.446;-2.266;2023-08-01T10:44:28;100803.16;;;14.23;100.00
73101;BME280;61288;53.446;-2.266;2023-08-01T10:47:04;100817.84;;;14.24;100.00
73101;BME280;61288;53.446;-2.266;2023-08-01T10:49:41;100822.00;;;14.28;100.00
73101;BME280;61288;53.446;-2.266;2023-08-01T10:54:43;100856.38;;;14.51;100.00
73101;BME280;61288;53.446;-2.266;2023-08-01T10:57:15;100857.66;;;14.60;100.00
73101;BME280;61288;53.446;-2.266;2023-08-01T10:59:42;100875.50;;;14.68;100.00
73101;BME280;61288;53.446;-2.266;2023-08-01T11:02:08;100876.19;;;14.71;100.00
73101;BME280;61288;53.446;-2.266;2023-08-01T11:04:34;100878.72;;;14.73;100.00
73101;BME280;61288;53.446;-2.266;2023-08-01T11:07:01;100886.88;;;14.83;100.00
73101;BME280;61288;53.446;-2.266;2023-08-01T11:09:27;100893.44;;;14.90;100.00
73101;BME280;61288;53.446;-2.266;2023-08-01T11:11:55;100899.22;;;14.95;100.00
73101;BME280;61288;53.446;-2.266;2023-08-01T11:14:22;100893.84;;;14.98;100.00
73101;BME280;61288;53.446;-2.266;2023-08-01T11:16:49;100892.91;;;14.99;100.00
73101;BME280;61288;53.446;-2.266;2023-08-01T11:19:27;100878.00;;;15.01;100.00
73101;BME280;61288;53.446;-2.266;2023-08-01T11:21:55;100884.13;;;15.16;100.00
73101;BME280;61288;53.446;-2.266;2023-08-01T11:24:23;100871.22;;;15.29;100.00
73101;BME280;61288;53.446;-2.266;2023-08-01T11:26:50;100856.97;;;15.35;100.00
73101;BME280;61288;53.446;-2.266;2023-08-01T11:29:17;100831.28;;;15.58;100.00
73101;BME280;61288;53.446;-2.266;2023-08-01T11:31:53;100817.78;;;15.95;100.00
73101;BME280;61288;53.446;-2.266;2023-08-01T11:34:19;100819.78;;;16.33;100.00
73101;BME280;61288;53.446;-2.266;2023-08-01T11:36:44;100821.44;;;16.76;100.00
73101;BME280;61288;53.446;-2.266;2023-08-01T11:39:11;100790.00;;;17.03;100.00
73101;BME280;61288;53.446;-2.266;2023-08-01T11:41:39;100729.38;;;16.97;100.00
73101;BME280;61288;53.446;-2.266;2023-08-01T11:44:06;100668.00;;;16.88;100.00
73101;BME280;61288;53.446;-2.266;2023-08-01T11:46:33;100605.19;;;16.75;100.00
73101;BME280;61288;53.446;-2.266;2023-08-01T11:49:00;100566.69;;;16.64;100.00
73101;BME280;61288;53.446;-2.266;2023-08-01T11:51:26;100532.47;;;16.67;100.00
73101;BME280;61288;53.446;-2.266;2023-08-01T11:54:03;100542.41;;;16.62;100.00
73101;BME280;61288;53.446;-2.266;2023-08-01T11:56:32;100534.91;;;16.57;100.00
73101;BME280;61288;53.446;-2.266;2023-08-01T11:58:57;100531.88;;;16.51;100.00
73101;BME280;61288;53.446;-2.266;2023-08-01T12:01:24;100521.09;;;16.42;100.00
73101;BME280;61288;53.446;-2.266;2023-08-01T12:03:54;100517.63;;;16.29;100.00
73101;BME280;61288;53.446;-2.266;2023-08-01T12:06:22;100533.09;;;16.19;100.00
73101;BME280;61288;53.446;-2.266;2023-08-01T12:08:51;100536.31;;;16.10;100.00
73101;BME280;61288;53.446;-2.266;2023-08-01T12:11:25;100531.06;;;15.97;100.00
73101;BME280;61288;53.446;-2.266;2023-08-01T12:14:13;100534.19;;;15.89;100.00
73101;BME280;61288;53.446;-2.266;2023-08-01T12:16:45;100546.22;;;15.92;100.00
73101;BME280;61288;53.446;-2.266;2023-08-01T12:19:11;100576.97;;;16.01;100.00
73101;BME280;61288;53.446;-2.266;2023-08-01T12:21:41;100560.47;;;16.00;100.00
73101;BME280;61288;53.446;-2.266;2023-08-01T12:24:07;100564.84;;;16.00;100.00
73101;BME280;61288;53.446;-2.266;2023-08-01T12:26:32;100539.47;;;16.28;100.00
73101;BME280;61288;53.446;-2.266;2023-08-01T12:28:58;100540.75;;;16.48;100.00